sensor_id;sensor_type;location;lat;lon;timestamp;P1;durP1;ratioP1;P2;durP2;ratioP2
7557;SDS011;3820;51.098;13.716;2023-08-31T00:01:31;2.25;;;2.05;;
7557;SDS011;3820;51.098;13.716;2023-08-31T00:03:59;5.03;;;2.45;;
7557;SDS011;3820;51.098;13.716;2023-08-31T00:06:26;3.47;;;2.40;;
7557;SDS011;3820;51.098;13.716;2023-08-31T00:08:53;4.80;;;3.30;;
7557;SDS011;3820;51.098;13.716;2023-08-31T00:11:20;4.55;;;2.58;;
7557;SDS011;3820;51.098;13.716;2023-08-31T00:13:47;4.35;;;2.67;;
7557;SDS011;3820;51.098;13.716;2023-08-31T00:16:13;4.40;;;2.90;;
7557;SDS011;3820;51.098;13.716;2023-08-31T00:18:40;3.33;;;2.65;;
7557;SDS011;3820;51.098;13.716;2023-08-31T00:21:07;2.65;;;2.10;;
7557;SDS011;3820;51.098;13.716;2023-08-31T00:23:36;3.25;;;2.33;;
7557;SDS011;3820;51.098;13.716;2023-08-31T00:26:03;3.53;;;2.47;;
7557;SDS011;3820;51.098;13.716;2023-08-31T00:28:30;3.35;;;2.55;;
7557;SDS011;3820;51.098;13.716;2023-08-31T00:30:56;3.67;;;2.25;;
7557;SDS011;3820;51.098;13.716;2023-08-31T00:33:25;7.03;;;2.03;;
7557;SDS011;3820;51.098;13.716;2023-08-31T00:35:52;4.68;;;2.40;;
7557;SDS011;3820;51.098;13.716;2023-08-31T00:38:19;2.20;;;1.95;;
7557;SDS011;3820;51.098;13.716;2023-08-31T00:40:45;2.60;;;1.95;;
7557;SDS011;3820;51.098;13.716;2023-08-31T00:43:15;2.58;;;1.92;;
7557;SDS011;3820;51.098;13.716;2023-08-31T00:45:43;2.03;;;1.83;;
7557;SDS011;3820;51.098;13.716;2023-08-31T00:48:11;2.05;;;1.85;;
7557;SDS011;3820;51.098;13.716;2023-08-31T00:50:38;2.58;;;1.80;;
7557;SDS011;3820;51.098;13.716;2023-08-31T00:53:05;2.88;;;1.73;;
7557;SDS011;3820;51.098;13.716;2023-08-31T00:55:32;1.85;;;1.55;;
7557;SDS011;3820;51.098;13.716;2023-08-31T00:57:59;2.70;;;1.80;;
7557;SDS011;3820;51.098;13.716;2023-08-31T01:03:29;2.33;;;1.88;;
7557;SDS011;3820;51.098;13.716;2023-08-31T01:06:15;2.28;;;1.80;;
7557;SDS011;3820;51.098;13.716;2023-08-31T01:08:50;2.65;;;1.95;;
7557;SDS011;3820;51.098;13.716;2023-08-31T01:13:57;2.25;;;1.65;;
7557;SDS011;3820;51.098;13.716;2023-08-31T01:16:29;2.50;;;1.50;;
7557;SDS011;3820;51.098;13.716;2023-08-31T01:18:58;2.33;;;1.50;;
7557;SDS011;3820;51.098;13.716;2023-08-31T01:21:27;3.03;;;1.75;;
7557;SDS011;3820;51.098;13.716;2023-08-31T01:23:57;3.55;;;1.40;;
7557;SDS011;3820;51.098;13.716;2023-08-31T01:26:25;1.30;;;1.20;;
7557;SDS011;3820;51.098;13.716;2023-08-31T01:28:52;2.10;;;1.50;;
7557;SDS011;3820;51.098;13.716;2023-08-31T01:31:19;1.52;;;1.20;;
7557;SDS011;3820;51.098;13.716;2023-08-31T01:33:47;1.73;;;1.30;;
7557;SDS011;3820;51.098;13.716;2023-08-31T01:36:22;2.13;;;1.27;;
7557;SDS011;3820;51.098;13.716;2023-08-31T01:38:54;1.40;;;1.30;;
7557;SDS011;3820;51.098;13.716;2023-08-31T01:41:34;1.58;;;1.27;;
7557;SDS011;3820;51.098;13.716;2023-08-31T01:44:01;1.20;;;1.10;;
7557;SDS011;3820;51.098;13.716;2023-08-31T01:46:29;1.83;;;1.23;;
7557;SDS011;3820;51.098;13.716;2023-08-31T01:48:56;1.92;;;1.30;;
7557;SDS011;3820;51.098;13.716;2023-08-31T01:51:23;1.10;;;1.00;;
7557;SDS011;3820;51.098;13.716;2023-08-31T01:53:49;0.98;;;0.80;;
7557;SDS011;3820;51.098;13.716;2023-08-31T01:56:16;1.10;;;0.90;;
7557;SDS011;3820;51.098;13.716;2023-08-31T01:58:43;1.15;;;1.00;;
7557;SDS011;3820;51.098;13.716;2023-08-31T02:01:10;1.35;;;1.00;;
7557;SDS011;3820;51.098;13.716;2023-08-31T02:03:37;0.90;;;0.90;;
7557;SDS011;3820;51.098;13.716;2023-08-31T02:06:03;0.82;;;0.75;;
7557;SDS011;3820;51.098;13.716;2023-08-31T02:08:31;1.33;;;1.10;;
7557;SDS011;3820;51.098;13.716;2023-08-31T02:10:58;1.40;;;0.90;;
7557;SDS011;3820;51.098;13.716;2023-08-31T02:13:25;1.15;;;1.00;;
7557;SDS011;3820;51.098;13.716;2023-08-31T02:15:52;1.10;;;1.00;;
7557;SDS011;3820;51.098;13.716;2023-08-31T02:18:20;0.80;;;0.70;;
7557;SDS011;3820;51.098;13.716;2023-08-31T02:20:47;0.77;;;0.70;;
7557;SDS011;3820;51.098;13.716;2023-08-31T02:23:13;0.70;;;0.63;;
7557;SDS011;3820;51.098;13.716;2023-08-31T02:25:40;1.20;;;0.90;;
7557;SDS011;3820;51.098;13.716;2023-08-31T02:28:07;1.25;;;0.77;;
7557;SDS011;3820;51.098;13.716;2023-08-31T02:30:33;0.90;;;0.60;;
7557;SDS011;3820;51.098;13.716;2023-08-31T02:33:01;0.98;;;0.60;;
7557;SDS011;3820;51.098;13.716;2023-08-31T02:35:27;0.75;;;0.75;;
7557;SDS011;3820;51.098;13.716;2023-08-31T02:37:54;0.88;;;0.60;;
7557;SDS011;3820;51.098;13.716;2023-08-31T02:40:21;0.77;;;0.77;;
7557;SDS011;3820;51.098;13.716;2023-08-31T02:42:50;0.80;;;0.80;;
7557;SDS011;3820;51.098;13.716;2023-08-31T02:45:18;0.98;;;0.88;;
7557;SDS011;3820;51.098;13.716;2023-08-31T02:47:45;1.17;;;0.68;;
7557;SDS011;3820;51.098;13.716;2023-08-31T02:50:12;1.33;;;0.80;;
7557;SDS011;3820;51.098;13.716;2023-08-31T02:52:39;1.65;;;0.73;;
7557;SDS011;3820;51.098;13.716;2023-08-31T02:55:06;0.93;;;0.82;;
7557;SDS011;3820;51.098;13.716;2023-08-31T02:57:33;0.80;;;0.60;;
7557;SDS011;3820;51.098;13.716;2023-08-31T03:00:00;0.73;;;0.60;;
7557;SDS011;3820;51.098;13.716;2023-08-31T03:02:26;0.77;;;0.77;;
7557;SDS011;3820;51.098;13.716;2023-08-31T03:04:53;0.70;;;0.70;;
7557;SDS011;3820;51.098;13.716;2023-08-31T03:07:21;3.63;;;0.80;;
7557;SDS011;3820;51.098;13.716;2023-08-31T03:09:48;0.90;;;0.55;;
7557;SDS011;3820;51.098;13.716;2023-08-31T03:12:16;0.70;;;0.70;;
7557;SDS011;3820;51.098;13.716;2023-08-31T03:14:43;1.48;;;0.60;;
7557;SDS011;3820;51.098;13.716;2023-08-31T03:17:10;0.63;;;0.63;;
7557;SDS011;3820;51.098;13.716;2023-08-31T03:19:36;0.65;;;0.65;;
7557;SDS011;3820;51.098;13.716;2023-08-31T03:22:03;0.80;;;0.60;;
7557;SDS011;3820;51.098;13.716;2023-08-31T03:24:31;0.50;;;0.50;;
7557;SDS011;3820;51.098;13.716;2023-08-31T03:26:58;0.90;;;0.60;;
7557;SDS011;3820;51.098;13.716;2023-08-31T03:29:25;0.75;;;0.70;;
7557;SDS011;3820;51.098;13.716;2023-08-31T03:31:51;0.90;;;0.70;;
7557;SDS011;3820;51.098;13.716;2023-08-31T03:34:18;1.30;;;0.70;;
7557;SDS011;3820;51.098;13.716;2023-08-31T03:36:44;1.02;;;0.90;;
7557;SDS011;3820;51.098;13.716;2023-08-31T03:39:11;1.05;;;0.63;;
7557;SDS011;3820;51.098;13.716;2023-08-31T03:41:37;0.70;;;0.70;;
7557;SDS011;3820;51.098;13.716;2023-08-31T03:44:04;1.30;;;1.00;;
7557;SDS011;3820;51.098;13.716;2023-08-31T03:46:30;0.68;;;0.68;;
7557;SDS011;3820;51.098;13.716;2023-08-31T03:48:58;0.70;;;0.60;;
7557;SDS011;3820;51.098;13.716;2023-08-31T03:51:24;0.70;;;0.68;;
7557;SDS011;3820;51.098;13.716;2023-08-31T03:53:51;1.15;;;0.80;;
7557;SDS011;3820;51.098;13.716;2023-08-31T03:56:18;1.63;;;0.93;;
7557;SDS011;3820;51.098;13.716;2023-08-31T03:58:45;1.58;;;0.82;;
7557;SDS011;3820;51.098;13.716;2023-08-31T04:01:12;0.82;;;0.70;;
7557;SDS011;3820;51.098;13.716;2023-08-31T04:03:42;1.00;;;0.88;;
7557;SDS011;3820;51.098;13.716;2023-08-31T04:06:08;1.38;;;0.70;;
7557;SDS011;3820;51.098;13.716;2023-08-31T04:08:35;0.95;;;0.80;;
7557;SDS011;3820;51.098;13.716;2023-08-31T04:11:01;1.60;;;0.85;;
7557;SDS011;3820;51.098;13.716;2023-08-31T04:13:29;1.08;;;0.77;;
7557;SDS011;3820;51.098;13.716;2023-08-31T04:15:56;1.52;;;0.95;;
7557;SDS011;3820;51.098;13.716;2023-08-31T04:18:22;1.63;;;0.90;;
7557;SDS011;3820;51.098;13.716;2023-08-31T04:20:50;0.70;;;0.70;;
7557;SDS011;3820;51.098;13.716;2023-08-31T04:23:18;1.02;;;0.90;;
7557;SDS011;3820;51.098;13.716;2023-08-31T04:25:45;1.65;;;1.00;;
7557;SDS011;3820;51.098;13.716;2023-08-31T04:28:13;1.13;;;1.02;;
7557;SDS011;3820;51.098;13.716;2023-08-31T04:30:40;1.02;;;0.88;;
7557;SDS011;3820;51.098;13.716;2023-08-31T04:33:07;1.02;;;0.85;;
7557;SDS011;3820;51.098;13.716;2023-08-31T04:35:34;0.73;;;0.70;;
7557;SDS011;3820;51.098;13.716;2023-08-31T04:38:01;4.13;;;1.13;;
7557;SDS011;3820;51.098;13.716;2023-08-31T04:40:28;3.20;;;1.25;;
7557;SDS011;3820;51.098;13.716;2023-08-31T04:42:58;1.80;;;1.15;;
7557;SDS011;3820;51.098;13.716;2023-08-31T04:45:24;1.85;;;1.15;;
7557;SDS011;3820;51.098;13.716;2023-08-31T04:47:51;0.88;;;0.85;;
7557;SDS011;3820;51.098;13.716;2023-08-31T04:50:17;3.28;;;1.05;;
7557;SDS011;3820;51.098;13.716;2023-08-31T04:52:44;5.75;;;1.30;;
7557;SDS011;3820;51.098;13.716;2023-08-31T04:55:12;3.28;;;1.17;;
7557;SDS011;3820;51.098;13.716;2023-08-31T04:57:39;1.52;;;0.70;;
7557;SDS011;3820;51.098;13.716;2023-08-31T05:00:06;1.25;;;1.00;;
7557;SDS011;3820;51.098;13.716;2023-08-31T05:02:35;1.70;;;1.10;;
7557;SDS011;3820;51.098;13.716;2023-08-31T05:05:02;2.78;;;1.17;;
7557;SDS011;3820;51.098;13.716;2023-08-31T05:07:29;1.38;;;1.17;;
7557;SDS011;3820;51.098;13.716;2023-08-31T05:09:56;1.77;;;1.00;;
7557;SDS011;3820;51.098;13.716;2023-08-31T05:12:22;1.20;;;0.82;;
7557;SDS011;3820;51.098;13.716;2023-08-31T05:14:49;2.58;;;1.42;;
7557;SDS011;3820;51.098;13.716;2023-08-31T05:17:15;1.30;;;1.20;;
7557;SDS011;3820;51.098;13.716;2023-08-31T05:19:42;2.17;;;1.40;;
7557;SDS011;3820;51.098;13.716;2023-08-31T05:22:08;1.50;;;1.20;;
7557;SDS011;3820;51.098;13.716;2023-08-31T05:24:35;1.10;;;1.00;;
7557;SDS011;3820;51.098;13.716;2023-08-31T05:27:02;1.58;;;1.10;;
7557;SDS011;3820;51.098;13.716;2023-08-31T05:29:29;1.30;;;1.20;;
7557;SDS011;3820;51.098;13.716;2023-08-31T05:31:56;2.45;;;1.48;;
7557;SDS011;3820;51.098;13.716;2023-08-31T05:34:22;2.10;;;1.35;;
7557;SDS011;3820;51.098;13.716;2023-08-31T05:36:49;2.45;;;1.48;;
7557;SDS011;3820;51.098;13.716;2023-08-31T05:39:16;1.90;;;1.20;;
7557;SDS011;3820;51.098;13.716;2023-08-31T05:41:45;2.08;;;1.48;;
7557;SDS011;3820;51.098;13.716;2023-08-31T05:44:12;2.35;;;1.42;;
7557;SDS011;3820;51.098;13.716;2023-08-31T05:46:39;1.25;;;1.10;;
7557;SDS011;3820;51.098;13.716;2023-08-31T05:49:07;3.03;;;1.30;;
7557;SDS011;3820;51.098;13.716;2023-08-31T05:51:34;1.92;;;1.50;;
7557;SDS011;3820;51.098;13.716;2023-08-31T05:54:01;1.92;;;1.38;;
7557;SDS011;3820;51.098;13.716;2023-08-31T05:56:29;3.03;;;1.48;;
7557;SDS011;3820;51.098;13.716;2023-08-31T05:58:56;1.85;;;1.33;;
7557;SDS011;3820;51.098;13.716;2023-08-31T06:01:22;2.83;;;1.50;;
7557;SDS011;3820;51.098;13.716;2023-08-31T06:03:49;2.65;;;1.50;;
7557;SDS011;3820;51.098;13.716;2023-08-31T06:06:16;1.83;;;1.45;;
7557;SDS011;3820;51.098;13.716;2023-08-31T06:08:42;2.38;;;1.20;;
7557;SDS011;3820;51.098;13.716;2023-08-31T06:11:09;3.13;;;1.50;;
7557;SDS011;3820;51.098;13.716;2023-08-31T06:13:37;1.52;;;1.25;;
7557;SDS011;3820;51.098;13.716;2023-08-31T06:16:04;1.83;;;1.30;;
7557;SDS011;3820;51.098;13.716;2023-08-31T06:18:31;5.53;;;1.27;;
7557;SDS011;3820;51.098;13.716;2023-08-31T06:20:58;2.15;;;1.50;;
7557;SDS011;3820;51.098;13.716;2023-08-31T06:23:24;2.45;;;1.65;;
7557;SDS011;3820;51.098;13.716;2023-08-31T06:25:51;2.90;;;0.90;;
7557;SDS011;3820;51.098;13.716;2023-08-31T06:28:17;2.35;;;1.20;;
7557;SDS011;3820;51.098;13.716;2023-08-31T06:30:44;3.35;;;1.40;;
7557;SDS011;3820;51.098;13.716;2023-08-31T06:33:14;1.83;;;1.30;;
7557;SDS011;3820;51.098;13.716;2023-08-31T06:35:42;2.53;;;1.42;;
7557;SDS011;3820;51.098;13.716;2023-08-31T06:38:08;3.17;;;1.90;;
7557;SDS011;3820;51.098;13.716;2023-08-31T06:40:35;2.22;;;1.60;;
7557;SDS011;3820;51.098;13.716;2023-08-31T06:43:01;2.15;;;1.52;;
7557;SDS011;3820;51.098;13.716;2023-08-31T06:45:29;2.45;;;1.83;;
7557;SDS011;3820;51.098;13.716;2023-08-31T06:47:56;4.60;;;2.00;;
7557;SDS011;3820;51.098;13.716;2023-08-31T06:50:22;4.07;;;2.17;;
7557;SDS011;3820;51.098;13.716;2023-08-31T06:52:49;2.75;;;1.40;;
7557;SDS011;3820;51.098;13.716;2023-08-31T06:55:15;1.58;;;1.42;;
7557;SDS011;3820;51.098;13.716;2023-08-31T06:57:42;2.67;;;1.50;;
7557;SDS011;3820;51.098;13.716;2023-08-31T07:00:09;1.65;;;1.50;;
7557;SDS011;3820;51.098;13.716;2023-08-31T07:02:39;2.70;;;1.58;;
7557;SDS011;3820;51.098;13.716;2023-08-31T07:05:07;1.30;;;1.20;;
7557;SDS011;3820;51.098;13.716;2023-08-31T07:07:35;3.17;;;1.60;;
7557;SDS011;3820;51.098;13.716;2023-08-31T07:10:01;1.75;;;1.48;;
7557;SDS011;3820;51.098;13.716;2023-08-31T07:12:28;2.00;;;1.70;;
7557;SDS011;3820;51.098;13.716;2023-08-31T07:14:55;3.08;;;1.70;;
7557;SDS011;3820;51.098;13.716;2023-08-31T07:17:21;2.42;;;1.58;;
7557;SDS011;3820;51.098;13.716;2023-08-31T07:19:48;2.33;;;1.35;;
7557;SDS011;3820;51.098;13.716;2023-08-31T07:22:15;1.67;;;1.27;;
7557;SDS011;3820;51.098;13.716;2023-08-31T07:24:41;3.78;;;1.15;;
7557;SDS011;3820;51.098;13.716;2023-08-31T07:27:08;2.03;;;1.42;;
7557;SDS011;3820;51.098;13.716;2023-08-31T07:29:35;2.53;;;1.38;;
7557;SDS011;3820;51.098;13.716;2023-08-31T07:32:01;1.85;;;1.33;;
7557;SDS011;3820;51.098;13.716;2023-08-31T07:34:29;1.70;;;1.00;;
7557;SDS011;3820;51.098;13.716;2023-08-31T07:36:58;2.75;;;1.48;;
7557;SDS011;3820;51.098;13.716;2023-08-31T07:39:25;1.52;;;1.40;;
7557;SDS011;3820;51.098;13.716;2023-08-31T07:41:53;2.92;;;1.50;;
7557;SDS011;3820;51.098;13.716;2023-08-31T07:44:21;4.45;;;1.38;;
7557;SDS011;3820;51.098;13.716;2023-08-31T07:46:47;1.52;;;1.23;;
7557;SDS011;3820;51.098;13.716;2023-08-31T07:49:14;2.22;;;1.40;;
7557;SDS011;3820;51.098;13.716;2023-08-31T07:51:40;2.72;;;1.52;;
7557;SDS011;3820;51.098;13.716;2023-08-31T07:54:07;3.22;;;1.48;;
7557;SDS011;3820;51.098;13.716;2023-08-31T07:56:33;1.58;;;1.23;;
7557;SDS011;3820;51.098;13.716;2023-08-31T07:59:00;1.60;;;1.13;;
7557;SDS011;3820;51.098;13.716;2023-08-31T08:01:27;2.58;;;1.30;;
7557;SDS011;3820;51.098;13.716;2023-08-31T08:03:54;2.00;;;1.25;;
7557;SDS011;3820;51.098;13.716;2023-08-31T08:06:20;1.30;;;1.10;;
7557;SDS011;3820;51.098;13.716;2023-08-31T08:08:47;2.80;;;1.08;;
7557;SDS011;3820;51.098;13.716;2023-08-31T08:11:13;1.88;;;1.23;;
7557;SDS011;3820;51.098;13.716;2023-08-31T08:13:40;2.25;;;1.00;;
7557;SDS011;3820;51.098;13.716;2023-08-31T08:16:06;1.70;;;1.13;;
7557;SDS011;3820;51.098;13.716;2023-08-31T08:18:34;0.98;;;0.90;;
7557;SDS011;3820;51.098;13.716;2023-08-31T08:21:01;1.15;;;0.98;;
7557;SDS011;3820;51.098;13.716;2023-08-31T08:23:27;2.03;;;1.08;;
7557;SDS011;3820;51.098;13.716;2023-08-31T08:25:54;1.75;;;1.25;;
7557;SDS011;3820;51.098;13.716;2023-08-31T08:28:20;1.02;;;0.90;;
7557;SDS011;3820;51.098;13.716;2023-08-31T08:30:47;1.50;;;0.95;;
7557;SDS011;3820;51.098;13.716;2023-08-31T08:33:13;1.95;;;1.10;;
7557;SDS011;3820;51.098;13.716;2023-08-31T08:35:41;1.63;;;1.20;;
7557;SDS011;3820;51.098;13.716;2023-08-31T08:38:07;1.58;;;1.10;;
7557;SDS011;3820;51.098;13.716;2023-08-31T08:40:34;2.10;;;1.25;;
7557;SDS011;3820;51.098;13.716;2023-08-31T08:43:01;1.98;;;0.90;;
7557;SDS011;3820;51.098;13.716;2023-08-31T08:45:35;1.98;;;1.10;;
7557;SDS011;3820;51.098;13.716;2023-08-31T08:48:04;1.85;;;0.90;;
7557;SDS011;3820;51.098;13.716;2023-08-31T08:50:32;2.20;;;0.93;;
7557;SDS011;3820;51.098;13.716;2023-08-31T08:53:01;2.97;;;1.10;;
7557;SDS011;3820;51.098;13.716;2023-08-31T08:55:28;1.15;;;0.93;;
7557;SDS011;3820;51.098;13.716;2023-08-31T08:57:55;2.78;;;1.20;;
7557;SDS011;3820;51.098;13.716;2023-08-31T09:00:22;2.38;;;1.05;;
7557;SDS011;3820;51.098;13.716;2023-08-31T09:02:49;1.88;;;1.02;;
7557;SDS011;3820;51.098;13.716;2023-08-31T09:05:15;3.67;;;0.93;;
7557;SDS011;3820;51.098;13.716;2023-08-31T09:08:01;1.15;;;0.90;;
7557;SDS011;3820;51.098;13.716;2023-08-31T09:10:33;1.98;;;0.90;;
7557;SDS011;3820;51.098;13.716;2023-08-31T09:13:10;1.80;;;1.00;;
7557;SDS011;3820;51.098;13.716;2023-08-31T09:15:47;3.15;;;1.10;;
7557;SDS011;3820;51.098;13.716;2023-08-31T09:18:15;4.20;;;1.27;;
7557;SDS011;3820;51.098;13.716;2023-08-31T09:20:55;2.80;;;1.20;;
7557;SDS011;3820;51.098;13.716;2023-08-31T09:23:25;1.75;;;1.02;;
7557;SDS011;3820;51.098;13.716;2023-08-31T09:25:53;1.60;;;1.35;;
7557;SDS011;3820;51.098;13.716;2023-08-31T09:28:24;1.52;;;1.10;;
7557;SDS011;3820;51.098;13.716;2023-08-31T09:31:05;1.13;;;1.00;;
7557;SDS011;3820;51.098;13.716;2023-08-31T09:33:36;3.15;;;1.10;;
7557;SDS011;3820;51.098;13.716;2023-08-31T09:36:05;2.95;;;1.38;;
7557;SDS011;3820;51.098;13.716;2023-08-31T09:38:40;2.08;;;1.20;;
7557;SDS011;3820;51.098;13.716;2023-08-31T09:41:07;1.35;;;1.02;;
7557;SDS011;3820;51.098;13.716;2023-08-31T09:43:34;4.45;;;1.45;;
7557;SDS011;3820;51.098;13.716;2023-08-31T09:46:02;1.20;;;1.00;;
7557;SDS011;3820;51.098;13.716;2023-08-31T09:48:30;1.30;;;1.10;;
7557;SDS011;3820;51.098;13.716;2023-08-31T09:50:57;2.80;;;1.33;;
7557;SDS011;3820;51.098;13.716;2023-08-31T09:53:24;2.38;;;1.50;;
7557;SDS011;3820;51.098;13.716;2023-08-31T09:55:54;2.35;;;1.15;;
7557;SDS011;3820;51.098;13.716;2023-08-31T09:58:22;1.52;;;1.30;;
7557;SDS011;3820;51.098;13.716;2023-08-31T10:00:51;1.60;;;1.27;;
7557;SDS011;3820;51.098;13.716;2023-08-31T10:03:20;4.60;;;1.70;;
7557;SDS011;3820;51.098;13.716;2023-08-31T10:05:47;1.50;;;1.38;;
7557;SDS011;3820;51.098;13.716;2023-08-31T10:08:15;1.83;;;1.30;;
7557;SDS011;3820;51.098;13.716;2023-08-31T10:10:42;3.10;;;1.40;;
7557;SDS011;3820;51.098;13.716;2023-08-31T10:13:09;1.15;;;1.05;;
7557;SDS011;3820;51.098;13.716;2023-08-31T10:15:38;2.90;;;1.05;;
7557;SDS011;3820;51.098;13.716;2023-08-31T10:18:06;1.08;;;0.90;;
7557;SDS011;3820;51.098;13.716;2023-08-31T10:20:34;2.15;;;1.13;;
7557;SDS011;3820;51.098;13.716;2023-08-31T10:23:04;1.52;;;0.93;;
7557;SDS011;3820;51.098;13.716;2023-08-31T10:28:17;2.50;;;0.85;;
7557;SDS011;3820;51.098;13.716;2023-08-31T10:31:27;2.80;;;0.82;;
7557;SDS011;3820;51.098;13.716;2023-08-31T10:33:45;1.23;;;1.08;;
7557;SDS011;3820;51.098;13.716;2023-08-31T10:36:13;1.75;;;0.90;;
7557;SDS011;3820;51.098;13.716;2023-08-31T10:48:52;1.35;;;1.10;;
7557;SDS011;3820;51.098;13.716;2023-08-31T10:51:23;0.93;;;0.82;;
7557;SDS011;3820;51.098;13.716;2023-08-31T10:53:50;1.17;;;0.95;;
7557;SDS011;3820;51.098;13.716;2023-08-31T10:56:20;3.30;;;1.27;;
7557;SDS011;3820;51.098;13.716;2023-08-31T10:59:00;1.20;;;0.80;;
7557;SDS011;3820;51.098;13.716;2023-08-31T11:01:50;0.70;;;0.70;;
7557;SDS011;3820;51.098;13.716;2023-08-31T11:04:25;1.23;;;0.80;;
7557;SDS011;3820;51.098;13.716;2023-08-31T11:09:45;0.80;;;0.70;;
7557;SDS011;3820;51.098;13.716;2023-08-31T11:12:13;1.83;;;0.90;;
7557;SDS011;3820;51.098;13.716;2023-08-31T11:14:40;5.55;;;0.70;;
7557;SDS011;3820;51.098;13.716;2023-08-31T11:17:07;0.70;;;0.70;;
7557;SDS011;3820;51.098;13.716;2023-08-31T11:19:34;0.43;;;0.43;;
7557;SDS011;3820;51.098;13.716;2023-08-31T11:22:02;0.80;;;0.60;;
7557;SDS011;3820;51.098;13.716;2023-08-31T11:24:30;0.65;;;0.65;;
7557;SDS011;3820;51.098;13.716;2023-08-31T11:26:58;0.60;;;0.50;;
7557;SDS011;3820;51.098;13.716;2023-08-31T11:29:25;0.65;;;0.50;;
7557;SDS011;3820;51.098;13.716;2023-08-31T11:31:52;0.50;;;0.50;;
7557;SDS011;3820;51.098;13.716;2023-08-31T11:34:19;1.10;;;0.80;;
7557;SDS011;3820;51.098;13.716;2023-08-31T11:36:46;0.55;;;0.55;;
7557;SDS011;3820;51.098;13.716;2023-08-31T11:39:13;0.77;;;0.60;;
7557;SDS011;3820;51.098;13.716;2023-08-31T11:41:40;0.55;;;0.50;;
7557;SDS011;3820;51.098;13.716;2023-08-31T11:44:08;0.50;;;0.50;;
7557;SDS011;3820;51.098;13.716;2023-08-31T11:46:36;1.17;;;0.68;;
7557;SDS011;3820;51.098;13.716;2023-08-31T11:49:03;0.88;;;0.70;;
7557;SDS011;3820;51.098;13.716;2023-08-31T11:51:31;0.98;;;0.65;;
7557;SDS011;3820;51.098;13.716;2023-08-31T11:54:03;0.90;;;0.70;;
7557;SDS011;3820;51.098;13.716;2023-08-31T11:56:42;0.60;;;0.60;;
7557;SDS011;3820;51.098;13.716;2023-08-31T11:59:10;0.52;;;0.52;;
7557;SDS011;3820;51.098;13.716;2023-08-31T12:01:40;0.73;;;0.73;;
7557;SDS011;3820;51.098;13.716;2023-08-31T12:04:13;0.40;;;0.40;;
7557;SDS011;3820;51.098;13.716;2023-08-31T12:06:42;0.80;;;0.63;;
7557;SDS011;3820;51.098;13.716;2023-08-31T12:09:12;0.45;;;0.45;;
7557;SDS011;3820;51.098;13.716;2023-08-31T12:11:39;0.35;;;0.35;;
7557;SDS011;3820;51.098;13.716;2023-08-31T12:14:17;0.77;;;0.70;;
7557;SDS011;3820;51.098;13.716;2023-08-31T12:16:45;0.70;;;0.40;;
7557;SDS011;3820;51.098;13.716;2023-08-31T12:19:12;0.52;;;0.50;;
7557;SDS011;3820;51.098;13.716;2023-08-31T12:21:39;1.45;;;0.50;;
7557;SDS011;3820;51.098;13.716;2023-08-31T12:24:07;1.10;;;0.52;;
7557;SDS011;3820;51.098;13.716;2023-08-31T12:26:34;0.52;;;0.50;;
7557;SDS011;3820;51.098;13.716;2023-08-31T12:29:01;1.30;;;0.70;;
7557;SDS011;3820;51.098;13.716;2023-08-31T12:31:31;0.55;;;0.50;;
7557;SDS011;3820;51.098;13.716;2023-08-31T12:33:59;2.08;;;0.63;;
7557;SDS011;3820;51.098;13.716;2023-08-31T12:36:26;1.85;;;0.75;;
7557;SDS011;3820;51.098;13.716;2023-08-31T12:38:53;0.75;;;0.63;;
7557;SDS011;3820;51.098;13.716;2023-08-31T12:41:19;0.70;;;0.70;;
7557;SDS011;3820;51.098;13.716;2023-08-31T12:43:50;1.65;;;0.90;;
7557;SDS011;3820;51.098;13.716;2023-08-31T12:46:16;0.50;;;0.50;;
7557;SDS011;3820;51.098;13.716;2023-08-31T12:48:43;0.70;;;0.50;;
7557;SDS011;3820;51.098;13.716;2023-08-31T12:51:10;0.50;;;0.50;;
7557;SDS011;3820;51.098;13.716;2023-08-31T12:53:39;1.02;;;0.60;;
7557;SDS011;3820;51.098;13.716;2023-08-31T12:56:06;3.30;;;0.80;;
7557;SDS011;3820;51.098;13.716;2023-08-31T12:58:32;3.58;;;0.90;;
7557;SDS011;3820;51.098;13.716;2023-08-31T13:00:59;0.80;;;0.80;;
7557;SDS011;3820;51.098;13.716;2023-08-31T13:03:26;0.70;;;0.70;;
7557;SDS011;3820;51.098;13.716;2023-08-31T13:05:53;1.08;;;0.60;;
7557;SDS011;3820;51.098;13.716;2023-08-31T13:08:20;0.93;;;0.70;;
7557;SDS011;3820;51.098;13.716;2023-08-31T13:10:53;2.50;;;0.75;;
7557;SDS011;3820;51.098;13.716;2023-08-31T13:13:21;1.77;;;0.70;;
7557;SDS011;3820;51.098;13.716;2023-08-31T13:15:48;0.93;;;0.80;;
7557;SDS011;3820;51.098;13.716;2023-08-31T13:18:15;1.00;;;0.82;;
7557;SDS011;3820;51.098;13.716;2023-08-31T13:20:49;1.88;;;0.90;;
7557;SDS011;3820;51.098;13.716;2023-08-31T13:23:17;1.05;;;0.80;;
7557;SDS011;3820;51.098;13.716;2023-08-31T13:25:44;1.20;;;0.90;;
7557;SDS011;3820;51.098;13.716;2023-08-31T13:28:10;1.60;;;0.82;;
7557;SDS011;3820;51.098;13.716;2023-08-31T13:30:38;1.05;;;0.80;;
7557;SDS011;3820;51.098;13.716;2023-08-31T13:33:04;1.30;;;0.75;;
7557;SDS011;3820;51.098;13.716;2023-08-31T13:35:33;0.90;;;0.80;;
7557;SDS011;3820;51.098;13.716;2023-08-31T13:37:59;1.17;;;0.90;;
7557;SDS011;3820;51.098;13.716;2023-08-31T13:40:26;2.22;;;0.70;;
7557;SDS011;3820;51.098;13.716;2023-08-31T13:42:54;2.00;;;0.80;;
7557;SDS011;3820;51.098;13.716;2023-08-31T13:45:23;1.17;;;1.00;;
7557;SDS011;3820;51.098;13.716;2023-08-31T13:47:49;2.33;;;1.20;;
7557;SDS011;3820;51.098;13.716;2023-08-31T13:50:16;1.33;;;1.00;;
7557;SDS011;3820;51.098;13.716;2023-08-31T13:52:43;1.42;;;0.80;;
7557;SDS011;3820;51.098;13.716;2023-08-31T13:55:10;0.70;;;0.60;;
7557;SDS011;3820;51.098;13.716;2023-08-31T13:57:41;2.63;;;0.90;;
7557;SDS011;3820;51.098;13.716;2023-08-31T14:00:08;1.05;;;0.95;;
7557;SDS011;3820;51.098;13.716;2023-08-31T14:02:36;0.77;;;0.77;;
7557;SDS011;3820;51.098;13.716;2023-08-31T14:05:06;1.48;;;0.80;;
7557;SDS011;3820;51.098;13.716;2023-08-31T14:07:34;1.73;;;1.02;;
7557;SDS011;3820;51.098;13.716;2023-08-31T14:10:01;2.38;;;1.15;;
7557;SDS011;3820;51.098;13.716;2023-08-31T14:12:31;1.27;;;1.17;;
7557;SDS011;3820;51.098;13.716;2023-08-31T14:14:58;1.42;;;0.93;;
7557;SDS011;3820;51.098;13.716;2023-08-31T14:17:28;1.23;;;0.90;;
7557;SDS011;3820;51.098;13.716;2023-08-31T14:19:54;1.00;;;0.90;;
7557;SDS011;3820;51.098;13.716;2023-08-31T14:22:21;1.90;;;1.08;;
7557;SDS011;3820;51.098;13.716;2023-08-31T14:24:48;1.10;;;1.00;;
7557;SDS011;3820;51.098;13.716;2023-08-31T14:27:15;1.13;;;0.80;;
7557;SDS011;3820;51.098;13.716;2023-08-31T14:29:42;1.00;;;0.70;;
7557;SDS011;3820;51.098;13.716;2023-08-31T14:32:08;1.10;;;0.73;;
7557;SDS011;3820;51.098;13.716;2023-08-31T14:34:35;0.93;;;0.77;;
7557;SDS011;3820;51.098;13.716;2023-08-31T14:37:02;1.50;;;0.85;;
7557;SDS011;3820;51.098;13.716;2023-08-31T14:39:28;0.75;;;0.70;;
7557;SDS011;3820;51.098;13.716;2023-08-31T14:41:56;0.88;;;0.60;;
7557;SDS011;3820;51.098;13.716;2023-08-31T14:44:24;1.65;;;0.90;;
7557;SDS011;3820;51.098;13.716;2023-08-31T14:46:51;1.23;;;0.80;;
7557;SDS011;3820;51.098;13.716;2023-08-31T14:49:21;0.75;;;0.75;;
7557;SDS011;3820;51.098;13.716;2023-08-31T14:51:48;1.30;;;0.45;;
7557;SDS011;3820;51.098;13.716;2023-08-31T14:54:15;0.77;;;0.77;;
7557;SDS011;3820;51.098;13.716;2023-08-31T14:56:41;0.60;;;0.60;;
7557;SDS011;3820;51.098;13.716;2023-08-31T14:59:08;0.85;;;0.60;;
7557;SDS011;3820;51.098;13.716;2023-08-31T15:01:34;0.90;;;0.70;;
7557;SDS011;3820;51.098;13.716;2023-08-31T15:04:01;1.35;;;0.85;;
7557;SDS011;3820;51.098;13.716;2023-08-31T15:06:28;0.85;;;0.68;;
7557;SDS011;3820;51.098;13.716;2023-08-31T15:08:56;0.70;;;0.63;;
7557;SDS011;3820;51.098;13.716;2023-08-31T15:11:22;2.45;;;0.70;;
7557;SDS011;3820;51.098;13.716;2023-08-31T15:13:49;2.65;;;0.70;;
7557;SDS011;3820;51.098;13.716;2023-08-31T15:16:15;0.40;;;0.40;;
7557;SDS011;3820;51.098;13.716;2023-08-31T15:18:42;0.60;;;0.60;;
7557;SDS011;3820;51.098;13.716;2023-08-31T15:21:09;2.40;;;0.80;;
7557;SDS011;3820;51.098;13.716;2023-08-31T15:23:36;0.52;;;0.50;;
7557;SDS011;3820;51.098;13.716;2023-08-31T15:26:02;0.90;;;0.50;;